Time;durP1;ratioP1;P1;durP2;ratioP2;P2;SDS_P1;SDS_P2;PMS_P1;PMS_P2;Temp;Humidity;BMP_temperature;BMP_pressure;BME280_temperature;BME280_humidity;BME280_pressure;Samples;Min_cycle;Max_cycle;Signal;HPM_P1;HPM_P2
2024/02/29 00:01:13;;;;;;;;;;;;;;;5.84;100.00;99347.56;5004233;28;19925;-78
2024/02/29 00:04:28;;;;;;;;;;;;;;;5.94;100.00;99349.56;5063383;28;20437;-77
2024/02/29 00:07:04;;;;;;;;;;;;;;;5.96;100.00;99356.25;5054405;28;19931;-77
2024/02/29 00:09:44;;;;;;;;;;;;;;;5.81;100.00;99351.88;5071282;28;20394;-77
2024/02/29 00:12:30;;;;;;;;;;;;;;;5.70;100.00;99362.81;5072123;28;19987;-75
2024/02/29 00:15:42;;;;;;;;;;;;;;;5.25;100.00;99369.69;5061347;28;20010;-78
2024/02/29 00:22:14;;;;;;;;;;;;;;;5.06;100.00;99366.47;5028460;28;19924;-77
2024/02/29 00:25:24;;;;;;;;;;;;;;;4.97;100.00;99363.28;5072355;28;20003;-77
2024/02/29 00:31:44;;;;;;;;;;;;;;;4.97;100.00;99372.28;5071947;28;19959;-78
2024/02/29 00:38:03;;;;;;;;;;;;;;;4.90;100.00;99388.66;4972587;28;19981;-76
2024/02/29 00:41:22;;;;;;;;;;;;;;;4.71;100.00;99381.50;4953549;28;19961;-77
2024/02/29 00:50:09;;;;;;;;;;;;;;;4.74;100.00;99377.22;4957338;28;19965;-77
2024/02/29 00:53:13;;;;;;;;;;;;;;;4.68;100.00;99382.25;4951891;28;20383;-77
2024/02/29 00:59:34;;;;;;;;;;;;;;;4.80;100.00;99378.44;5042240;28;19971;-77
2024/02/29 01:18:05;;;;;;;;;;;;;;;4.85;100.00;99378.84;5051525;28;19959;-76
2024/02/29 01:23:55;;;;;;;;;;;;;;;5.23;100.00;99382.22;5051273;28;20033;-77
2024/02/29 02:05:14;;;;;;;;;;;;;;;4.89;100.00;99398.81;5050960;28;19947;-77
2024/02/29 02:32:51;;;;;;;;;;;;;;;5.34;100.00;99426.88;4976869;28;19921;-78
2024/02/29 02:42:10;;;;;;;;;;;;;;;5.18;100.00;99412.72;4955391;29;19959;-77
2024/02/29 02:51:35;;;;;;;;;;;;;;;5.22;100.00;99403.34;4988627;28;19968;-77
2024/02/29 02:54:43;;;;;;;;;;;;;;;5.26;100.00;99412.34;4926067;29;20370;-77
2024/02/29 03:00:51;;;;;;;;;;;;;;;5.29;100.00;99402.59;4944706;29;20384;-78
2024/02/29 03:28:55;;;;;;;;;;;;;;;5.64;100.00;99397.25;5107672;28;20348;-77
2024/02/29 03:32:02;;;;;;;;;;;;;;;5.74;100.00;99399.25;5101668;28;19912;-77
2024/02/29 03:35:07;;;;;;;;;;;;;;;5.87;100.00;99396.16;5094405;28;19916;-77
2024/02/29 03:50:37;;;;;;;;;;;;;;;5.84;100.00;99388.72;5059649;28;20365;-78
2024/02/29 03:59:25;;;;;;;;;;;;;;;5.92;100.00;99382.06;5064165;28;19919;-76
2024/02/29 04:02:12;;;;;;;;;;;;;;;5.93;100.00;99389.13;5039589;28;19924;-77
2024/02/29 04:04:41;;;;;;;;;;;;;;;6.00;100.00;99380.94;5068884;28;20412;-77
2024/02/29 04:07:08;;;;;;;;;;;;;;;5.95;100.00;99381.31;5052738;28;20450;-76
2024/02/29 04:09:35;;;;;;;;;;;;;;;5.95;100.00;99382.09;5070219;28;19960;-77
2024/02/29 04:22:13;;;;;;;;;;;;;;;5.54;100.00;99389.00;5007048;28;19998;-77
2024/02/29 04:31:09;;;;;;;;;;;;;;;5.56;100.00;99373.72;4941640;29;20426;-76
2024/02/29 04:40:14;;;;;;;;;;;;;;;5.79;100.00;99387.09;4997454;28;19972;-77
2024/02/29 04:43:19;;;;;;;;;;;;;;;5.84;100.00;99381.28;5091608;28;19916;-77
2024/02/29 04:46:04;;;;;;;;;;;;;;;5.91;100.00;99388.72;5071711;28;19912;-77
2024/02/29 04:48:30;;;;;;;;;;;;;;;6.03;100.00;99385.63;5041164;28;20015;-76
2024/02/29 04:50:57;;;;;;;;;;;;;;;6.04;100.00;99379.75;5073312;28;19917;-78
2024/02/29 04:53:23;;;;;;;;;;;;;;;6.10;100.00;99383.69;5075375;28;19916;-77
2024/02/29 04:56:36;;;;;;;;;;;;;;;6.15;100.00;99393.47;5086704;28;19916;-77
2024/02/29 05:06:00;;;;;;;;;;;;;;;5.90;100.00;99406.38;4973403;28;19932;-78
2024/02/29 05:08:58;;;;;;;;;;;;;;;5.62;100.00;99410.56;5109621;28;20440;-77
2024/02/29 05:17:48;;;;;;;;;;;;;;;5.64;100.00;99421.16;5108548;28;20437;-78
2024/02/29 05:21:02;;;;;;;;;;;;;;;5.71;100.00;99413.75;5061878;28;19919;-78
2024/02/29 05:24:11;;;;;;;;;;;;;;;5.82;100.00;99404.75;5022336;28;19913;-77
2024/02/29 05:26:57;;;;;;;;;;;;;;;5.89;100.00;99413.03;5070381;28;20362;-77
2024/02/29 05:35:10;;;;;;;;;;;;;;;6.00;100.00;99416.59;5085674;28;19961;-80
2024/02/29 05:37:37;;;;;;;;;;;;;;;6.04;100.00;99415.41;5081998;28;20315;-79
2024/02/29 05:40:05;;;;;;;;;;;;;;;6.13;100.00;99426.03;5092344;28;19919;-80
2024/02/29 05:42:33;;;;;;;;;;;;;;;6.21;100.00;99426.84;5088014;28;19911;-79
2024/02/29 05:44:59;;;;;;;;;;;;;;;6.32;100.00;99417.44;5086356;28;20140;-78
2024/02/29 05:47:26;;;;;;;;;;;;;;;6.43;100.00;99418.22;5085908;28;20405;-80
2024/02/29 05:49:51;;;;;;;;;;;;;;;6.55;100.00;99419.81;5072176;28;20018;-79
2024/02/29 05:52:19;;;;;;;;;;;;;;;6.68;100.00;99410.00;5094771;28;19912;-80
2024/02/29 05:54:45;;;;;;;;;;;;;;;6.82;100.00;99411.94;5078662;28;19922;-80
2024/02/29 05:57:14;;;;;;;;;;;;;;;6.96;100.00;99414.69;5092083;28;19916;-78
2024/02/29 05:59:41;;;;;;;;;;;;;;;7.02;100.00;99418.59;5110554;28;20806;-79
2024/02/29 06:02:09;;;;;;;;;;;;;;;7.14;100.00;99420.94;5095575;28;19911;-79
2024/02/29 06:04:44;;;;;;;;;;;;;;;7.31;100.00;99420.09;5094937;28;19923;-81
2024/02/29 06:07:16;;;;;;;;;;;;;;;7.50;100.00;99431.81;5113106;28;19927;-78
2024/02/29 06:09:52;;;;;;;;;;;;;;;7.58;100.00;99422.38;5105473;28;19916;-77
2024/02/29 06:12:19;;;;;;;;;;;;;;;7.65;100.00;99433.38;5075903;28;19915;-77
2024/02/29 06:14:46;;;;;;;;;;;;;;;7.70;100.00;99432.94;5078459;28;20332;-77
2024/02/29 06:17:22;;;;;;;;;;;;;;;7.67;100.00;99423.50;5095133;28;20307;-78
2024/02/29 06:19:50;;;;;;;;;;;;;;;7.81;100.00;99427.38;5103160;28;19912;-79
2024/02/29 06:22:22;;;;;;;;;;;;;;;7.98;100.00;99427.31;5090966;28;19984;-78
2024/02/29 06:24:56;;;;;;;;;;;;;;;8.17;100.00;99429.56;5077733;28;19973;-78
2024/02/29 06:27:38;;;;;;;;;;;;;;;8.37;100.00;99415.31;5102632;28;20372;-77
2024/02/29 06:30:05;;;;;;;;;;;;;;;8.67;100.00;99425.72;5085141;28;19961;-79
2024/02/29 06:33:09;;;;;;;;;;;;;;;8.92;100.00;99410.50;5114021;28;19988;-77
2024/02/29 06:35:38;;;;;;;;;;;;;;;9.13;100.00;99417.03;5089743;28;19963;-77
2024/02/29 06:38:03;;;;;;;;;;;;;;;9.12;100.00;99412.69;5085352;28;19915;-78
2024/02/29 06:40:29;;;;;;;;;;;;;;;9.22;100.00;99420.84;5116445;28;19915;-78
2024/02/29 06:42:55;;;;;;;;;;;;;;;9.39;100.00;99413.59;5098519;28;20003;-78
2024/02/29 06:45:21;;;;;;;;;;;;;;;9.49;100.00;99414.66;5098457;28;19919;-79
2024/02/29 06:47:48;;;;;;;;;;;;;;;9.63;100.00;99418.03;5094731;28;19927;-79
2024/02/29 06:50:13;;;;;;;;;;;;;;;9.80;100.00;99417.03;5078279;28;19916;-79
2024/02/29 06:52:40;;;;;;;;;;;;;;;9.94;100.00;99413.31;5098365;28;19912;-80
2024/02/29 06:55:08;;;;;;;;;;;;;;;10.07;99.94;99419.03;5098108;28;19916;-79
2024/02/29 06:57:49;;;;;;;;;;;;;;;10.19;98.99;99424.81;5098604;28;19912;-79
2024/02/29 07:00:15;;;;;;;;;;;;;;;10.23;99.12;99426.75;5104414;28;20299;-79
2024/02/29 07:02:41;;;;;;;;;;;;;;;10.18;99.13;99419.72;5115803;28;19912;-79
2024/02/29 07:05:11;;;;;;;;;;;;;;;10.19;98.36;99419.28;5097834;28;19923;-78
2024/02/29 07:08:02;;;;;;;;;;;;;;;10.16;98.04;99427.59;5093486;28;19931;-78
2024/02/29 07:10:27;;;;;;;;;;;;;;;10.09;98.37;99428.47;5094883;28;19912;-79
2024/02/29 07:12:52;;;;;;;;;;;;;;;10.12;99.52;99426.88;5090101;28;19913;-79
2024/02/29 07:15:20;;;;;;;;;;;;;;;10.13;99.22;99425.66;5092633;28;20007;-79
2024/02/29 07:17:45;;;;;;;;;;;;;;;9.99;100.00;99434.94;5117006;28;19974;-79
2024/02/29 07:20:13;;;;;;;;;;;;;;;10.04;100.00;99426.19;5113429;28;19911;-79
2024/02/29 07:22:40;;;;;;;;;;;;;;;10.17;100.00;99431.97;5092253;28;19916;-79
2024/02/29 07:25:08;;;;;;;;;;;;;;;10.29;100.00;99430.63;5112702;28;19916;-78
2024/02/29 07:27:40;;;;;;;;;;;;;;;10.31;100.00;99433.75;5112891;28;20264;-79
2024/02/29 07:30:08;;;;;;;;;;;;;;;10.24;100.00;99428.31;5094641;28;19922;-78
2024/02/29 07:32:35;;;;;;;;;;;;;;;10.32;100.00;99438.06;5095882;28;19926;-78
2024/02/29 07:35:00;;;;;;;;;;;;;;;10.40;100.00;99440.31;5079576;28;20300;-78
2024/02/29 07:37:26;;;;;;;;;;;;;;;10.54;99.59;99426.28;5114115;28;19968;-79
2024/02/29 07:39:51;;;;;;;;;;;;;;;10.74;98.62;99429.13;5096622;28;20286;-78
2024/02/29 07:42:21;;;;;;;;;;;;;;;10.82;97.20;99424.25;5114826;28;19912;-79
2024/02/29 07:44:47;;;;;;;;;;;;;;;10.83;97.06;99423.84;5096071;28;20276;-76
2024/02/29 07:47:12;;;;;;;;;;;;;;;11.05;96.46;99427.03;5082619;28;19915;-79
2024/02/29 07:49:39;;;;;;;;;;;;;;;11.35;95.71;99431.59;5096176;28;19947;-79
2024/02/29 07:52:04;;;;;;;;;;;;;;;11.50;92.97;99429.38;5084262;28;19916;-78
2024/02/29 07:54:29;;;;;;;;;;;;;;;11.93;90.26;99419.03;5105083;28;19918;-79
2024/02/29 07:56:56;;;;;;;;;;;;;;;12.34;86.96;99415.75;5090084;28;19919;-83
2024/02/29 07:59:21;;;;;;;;;;;;;;;12.30;83.82;99422.59;5081560;28;19934;-79
2024/02/29 08:01:47;;;;;;;;;;;;;;;12.25;83.93;99421.06;5082922;28;20726;-79
2024/02/29 08:04:12;;;;;;;;;;;;;;;12.70;81.82;99415.69;5094475;28;20383;-80
2024/02/29 08:06:37;;;;;;;;;;;;;;;12.97;79.03;99413.41;5093599;28;19928;-80
2024/02/29 08:09:05;;;;;;;;;;;;;;;12.73;78.87;99425.88;5078380;28;19912;-80
2024/02/29 08:11:48;;;;;;;;;;;;;;;12.62;79.64;99422.59;5092642;28;19923;-77
2024/02/29 08:14:13;;;;;;;;;;;;;;;12.67;80.11;99419.31;5090204;28;19912;-79
2024/02/29 08:16:39;;;;;;;;;;;;;;;12.69;80.32;99427.97;5096621;28;19968;-78
2024/02/29 08:19:05;;;;;;;;;;;;;;;13.09;78.83;99413.91;5083246;28;19955;-79
2024/02/29 08:21:32;;;;;;;;;;;;;;;12.95;78.41;99420.63;5075294;28;19919;-79
2024/02/29 08:23:57;;;;;;;;;;;;;;;13.05;77.32;99419.56;5089021;28;19989;-80
2024/02/29 08:26:25;;;;;;;;;;;;;;;12.76;78.42;99408.41;5083406;28;19966;-79
2024/02/29 08:28:51;;;;;;;;;;;;;;;12.80;80.48;99420.19;5095920;28;19912;-80
2024/02/29 08:31:16;;;;;;;;;;;;;;;13.13;76.86;99428.50;5095040;28;19923;-77
2024/02/29 08:33:41;;;;;;;;;;;;;;;13.36;75.24;99423.53;5084437;28;19916;-79
2024/02/29 08:36:07;;;;;;;;;;;;;;;13.43;73.31;99422.53;5090456;28;20307;-77
2024/02/29 08:38:34;;;;;;;;;;;;;;;13.29;73.97;99425.69;5095097;28;19933;-79
2024/02/29 08:40:59;;;;;;;;;;;;;;;13.69;72.66;99434.50;5074876;28;19916;-80
2024/02/29 08:43:24;;;;;;;;;;;;;;;13.79;70.05;99433.44;5091184;28;20288;-78
2024/02/29 08:45:51;;;;;;;;;;;;;;;13.93;69.04;99419.13;5095564;28;20006;-79
2024/02/29 08:48:17;;;;;;;;;;;;;;;13.95;70.19;99416.69;5095079;28;19923;-79
2024/02/29 08:50:42;;;;;;;;;;;;;;;13.84;70.47;99416.22;5075592;28;19917;-80
2024/02/29 08:53:09;;;;;;;;;;;;;;;13.57;70.72;99416.59;5096206;28;19934;-80
2024/02/29 08:55:36;;;;;;;;;;;;;;;13.48;71.94;99413.69;5106395;28;19912;-79
2024/02/29 08:58:04;;;;;;;;;;;;;;;13.41;72.86;99419.41;5111233;28;20014;-77
2024/02/29 09:00:29;;;;;;;;;;;;;;;13.30;73.96;99411.38;5084640;28;20011;-79
2024/02/29 09:02:55;;;;;;;;;;;;;;;13.26;74.12;99412.72;5094235;28;19916;-79
2024/02/29 09:05:20;;;;;;;;;;;;;;;13.53;73.83;99410.34;5095709;28;19977;-79
2024/02/29 09:07:45;;;;;;;;;;;;;;;13.32;73.56;99402.63;5094369;28;19924;-78
2024/02/29 09:10:27;;;;;;;;;;;;;;;13.15;73.51;99414.97;5076433;27;2443178;-77
2024/02/29 09:12:54;;;;;;;;;;;;;;;12.85;75.51;99405.78;5130290;28;19988;-76
2024/02/29 09:15:19;;;;;;;;;;;;;;;13.11;75.90;99400.38;5124760;27;20438;-79
2024/02/29 09:17:45;;;;;;;;;;;;;;;13.04;75.77;99404.13;5134043;27;19950;-78
2024/02/29 09:20:10;;;;;;;;;;;;;;;13.13;74.86;99395.22;5135562;27;20314;-76
2024/02/29 09:22:38;;;;;;;;;;;;;;;13.33;74.46;99393.06;5134521;27;20009;-77
2024/02/29 09:25:04;;;;;;;;;;;;;;;13.75;72.98;99389.09;5134185;27;20516;-77
2024/02/29 09:27:29;;;;;;;;;;;;;;;14.22;71.96;99391.28;5133439;27;19951;-78
2024/02/29 09:29:55;;;;;;;;;;;;;;;13.83;69.46;99379.34;5133838;27;19958;-77
2024/02/29 09:32:21;;;;;;;;;;;;;;;13.98;70.98;99387.25;5135166;27;19911;-77
2024/02/29 09:34:46;;;;;;;;;;;;;;;13.89;70.52;99379.56;5134269;27;20011;-76
2024/02/29 09:37:12;;;;;;;;;;;;;;;13.67;72.29;99389.75;5119863;27;19911;-77
2024/02/29 09:39:37;;;;;;;;;;;;;;;13.89;70.14;99387.13;5123107;28;19915;-77
2024/02/29 09:42:03;;;;;;;;;;;;;;;13.91;71.00;99388.25;5113444;27;20390;-76
2024/02/29 09:44:29;;;;;;;;;;;;;;;13.79;72.88;99384.22;5133529;27;19918;-78
2024/02/29 09:46:58;;;;;;;;;;;;;;;14.28;71.25;99375.59;5133589;27;19911;-77
2024/02/29 09:49:26;;;;;;;;;;;;;;;14.07;70.57;99379.03;5132891;27;19919;-75
2024/02/29 09:51:53;;;;;;;;;;;;;;;14.39;69.12;99375.28;5133010;27;19938;-77
2024/02/29 09:54:18;;;;;;;;;;;;;;;14.74;69.59;99373.34;5132359;27;20326;-76
2024/02/29 09:56:44;;;;;;;;;;;;;;;15.14;67.61;99366.00;5115518;27;20014;-78
2024/02/29 09:59:15;;;;;;;;;;;;;;;15.42;64.64;99367.78;5133834;27;19942;-76
2024/02/29 10:01:41;;;;;;;;;;;;;;;14.93;65.17;99356.41;5119371;27;19918;-76
2024/02/29 10:04:07;;;;;;;;;;;;;;;14.87;64.61;99354.63;5132266;27;19911;-78
2024/02/29 10:06:32;;;;;;;;;;;;;;;14.49;66.48;99357.47;5119783;27;20056;-78
2024/02/29 10:09:01;;;;;;;;;;;;;;;14.60;66.09;99355.91;5151104;27;19919;-78
2024/02/29 10:11:28;;;;;;;;;;;;;;;14.44;66.94;99350.50;5132157;27;19922;-78
2024/02/29 10:13:53;;;;;;;;;;;;;;;14.62;67.12;99345.13;5119587;28;19912;-80
2024/02/29 10:16:19;;;;;;;;;;;;;;;14.41;67.68;99345.81;5133225;27;20394;-78
2024/02/29 10:18:44;;;;;;;;;;;;;;;14.48;68.57;99340.00;5116516;27;19915;-79
2024/02/29 10:21:10;;;;;;;;;;;;;;;14.68;67.08;99338.97;5121887;27;19915;-78
2024/02/29 10:23:36;;;;;;;;;;;;;;;14.78;66.62;99340.63;5118754;27;19915;-79
2024/02/29 10:26:01;;;;;;;;;;;;;;;15.16;64.67;99334.94;5102200;28;20014;-78
2024/02/29 10:28:28;;;;;;;;;;;;;;;15.01;64.62;99326.28;5105826;27;19927;-80
2024/02/29 10:30:54;;;;;;;;;;;;;;;14.91;67.67;99331.00;5111276;27;19920;-78
2024/02/29 10:33:21;;;;;;;;;;;;;;;15.00;67.74;99324.75;5103436;27;19915;-80
2024/02/29 10:35:47;;;;;;;;;;;;;;;15.29;65.46;99318.94;5102688;27;19931;-81
2024/02/29 10:38:15;;;;;;;;;;;;;;;15.03;66.47;99312.72;5098448;28;19922;-80
2024/02/29 10:40:42;;;;;;;;;;;;;;;14.64;68.21;99309.31;5123347;27;19919;-80
2024/02/29 10:43:11;;;;;;;;;;;;;;;14.88;66.61;99306.88;5110299;27;20421;-79
2024/02/29 10:45:51;;;;;;;;;;;;;;;14.88;65.95;99303.31;5093390;27;19919;-81
2024/02/29 10:48:31;;;;;;;;;;;;;;;14.82;68.08;99297.56;5102868;27;19922;-80
2024/02/29 10:50:57;;;;;;;;;;;;;;;14.94;65.85;99295.97;5086984;27;19924;-81
2024/02/29 10:53:41;;;;;;;;;;;;;;;14.95;65.24;99297.50;5109595;27;19915;-80
2024/02/29 10:56:15;;;;;;;;;;;;;;;15.15;66.62;99303.53;5098674;27;19931;-80
2024/02/29 10:58:42;;;;;;;;;;;;;;;15.06;65.13;99293.13;5108246;27;19916;-79
2024/02/29 11:01:09;;;;;;;;;;;;;;;14.63;63.67;99285.50;5113861;28;19980;-79
2024/02/29 11:03:35;;;;;;;;;;;;;;;14.56;65.21;99285.72;5086472;27;19927;-81
2024/02/29 11:06:01;;;;;;;;;;;;;;;14.37;65.40;99286.78;5108544;27;19926;-79
2024/02/29 11:08:28;;;;;;;;;;;;;;;14.69;65.31;99273.78;5102384;27;20348;-78
2024/02/29 11:10:57;;;;;;;;;;;;;;;14.93;64.72;99280.47;5107013;27;19970;-80
2024/02/29 11:13:22;;;;;;;;;;;;;;;15.33;63.03;99284.16;5098264;27;19965;-79
2024/02/29 11:15:53;;;;;;;;;;;;;;;14.97;64.14;99284.69;5097776;27;19919;-80
2024/02/29 11:18:25;;;;;;;;;;;;;;;14.53;66.11;99281.06;5102317;27;20018;-79
2024/02/29 11:21:06;;;;;;;;;;;;;;;14.36;67.03;99264.94;5116088;27;19924;-80
2024/02/29 11:23:35;;;;;;;;;;;;;;;14.12;65.18;99261.75;5103836;27;19922;-79
2024/02/29 11:26:10;;;;;;;;;;;;;;;13.98;65.70;99260.25;5100007;27;19915;-80
2024/02/29 11:28:36;;;;;;;;;;;;;;;14.06;68.11;99250.44;5101400;27;20007;-79
2024/02/29 11:31:17;;;;;;;;;;;;;;;14.33;67.67;99244.41;5102395;27;19967;-79
2024/02/29 11:33:44;;;;;;;;;;;;;;;14.46;66.07;99245.16;5095579;27;19915;-81
2024/02/29 11:36:10;;;;;;;;;;;;;;;14.15;65.56;99213.63;5096642;27;19915;-79
2024/02/29 11:38:39;;;;;;;;;;;;;;;14.03;65.76;99214.44;5095227;27;19930;-80
2024/02/29 11:41:15;;;;;;;;;;;;;;;13.77;67.13;99228.34;5122992;27;20034;-79
2024/02/29 11:43:41;;;;;;;;;;;;;;;14.01;67.16;99242.66;5106074;27;20272;-79
2024/02/29 11:46:08;;;;;;;;;;;;;;;13.89;66.48;99237.91;5096330;27;19937;-80
2024/02/29 11:48:33;;;;;;;;;;;;;;;13.93;67.32;99243.31;5100226;27;19919;-80
2024/02/29 11:50:58;;;;;;;;;;;;;;;14.08;68.72;99244.44;5083039;28;19955;-80
2024/02/29 11:53:25;;;;;;;;;;;;;;;14.16;68.44;99238.22;5104018;27;20002;-78
2024/02/29 11:55:52;;;;;;;;;;;;;;;14.09;68.20;99230.09;5089963;27;20379;-80
2024/02/29 11:58:17;;;;;;;;;;;;;;;14.12;68.50;99223.63;5101575;27;20184;-80
2024/02/29 12:00:46;;;;;;;;;;;;;;;14.04;68.74;99221.56;5098169;27;19995;-80
2024/02/29 12:03:12;;;;;;;;;;;;;;;14.52;66.05;99218.34;5116070;27;19920;-79
2024/02/29 12:05:38;;;;;;;;;;;;;;;14.94;65.89;99223.63;5095792;27;19920;-81
2024/02/29 12:08:04;;;;;;;;;;;;;;;15.27;64.33;99218.38;5083697;27;20031;-79
2024/02/29 12:10:30;;;;;;;;;;;;;;;15.41;64.64;99215.84;5101931;27;20014;-80
2024/02/29 12:12:55;;;;;;;;;;;;;;;15.62;61.47;99210.69;5101963;28;19932;-80
2024/02/29 12:15:21;;;;;;;;;;;;;;;15.32;61.09;99199.09;5096600;27;19930;-80
2024/02/29 12:17:48;;;;;;;;;;;;;;;15.58;60.98;99199.72;5096217;28;19916;-79
2024/02/29 12:20:16;;;;;;;;;;;;;;;15.14;62.24;99193.41;5122499;27;19916;-79
2024/02/29 12:22:48;;;;;;;;;;;;;;;15.21;61.99;99193.16;5132751;27;19919;-77
2024/02/29 12:25:14;;;;;;;;;;;;;;;14.91;63.14;99180.00;5119224;27;19911;-80
2024/02/29 12:27:43;;;;;;;;;;;;;;;15.17;60.77;99184.19;5095969;28;19941;-78
2024/02/29 12:30:11;;;;;;;;;;;;;;;15.36;61.63;99171.91;5107031;27;19919;-80
2024/02/29 12:32:36;;;;;;;;;;;;;;;15.39;59.32;99159.84;5120292;27;19911;-80
2024/02/29 12:35:04;;;;;;;;;;;;;;;15.20;60.54;99162.97;5131214;27;20005;-77
2024/02/29 12:37:29;;;;;;;;;;;;;;;15.59;59.82;99158.69;5116920;27;19918;-78
2024/02/29 12:39:59;;;;;;;;;;;;;;;15.91;58.66;99141.47;5116749;27;19915;-77
2024/02/29 12:42:24;;;;;;;;;;;;;;;16.17;58.65;99142.72;5118850;27;19925;-80
2024/02/29 12:44:50;;;;;;;;;;;;;;;15.95;56.76;99144.09;5103688;28;19912;-79
2024/02/29 12:47:16;;;;;;;;;;;;;;;15.68;57.94;99142.78;5102922;27;19911;-78
2024/02/29 12:49:41;;;;;;;;;;;;;;;15.42;60.15;99149.81;5105237;28;19926;-80
2024/02/29 12:52:07;;;;;;;;;;;;;;;15.55;58.73;99147.72;5117506;27;19912;-79
2024/02/29 12:54:34;;;;;;;;;;;;;;;15.45;59.07;99146.88;5115573;27;20011;-78
2024/02/29 12:57:00;;;;;;;;;;;;;;;15.42;59.74;99142.22;5095807;28;19919;-79
2024/02/29 12:59:26;;;;;;;;;;;;;;;15.09;60.43;99143.91;5109961;28;19911;-79
2024/02/29 13:01:53;;;;;;;;;;;;;;;15.22;61.29;99152.19;5145987;27;19915;-77
2024/02/29 13:04:18;;;;;;;;;;;;;;;15.30;61.09;99154.25;5113817;28;19922;-79
2024/02/29 13:06:43;;;;;;;;;;;;;;;15.50;61.61;99151.06;5113779;28;19912;-79
2024/02/29 13:09:09;;;;;;;;;;;;;;;15.56;60.07;99148.47;5116093;28;20458;-79
2024/02/29 13:11:34;;;;;;;;;;;;;;;15.38;60.08;99149.16;5100771;28;19941;-79
2024/02/29 13:13:59;;;;;;;;;;;;;;;15.46;59.24;99150.44;5101368;28;19916;-77
2024/02/29 13:16:26;;;;;;;;;;;;;;;15.49;60.55;99152.31;5113113;28;19939;-78
2024/02/29 13:18:51;;;;;;;;;;;;;;;15.67;59.13;99141.22;5111144;28;20379;-80
2024/02/29 13:21:16;;;;;;;;;;;;;;;15.77;59.76;99140.03;5134319;28;19968;-79
2024/02/29 13:23:43;;;;;;;;;;;;;;;15.71;58.92;99127.94;5105119;28;19913;-81
2024/02/29 13:26:08;;;;;;;;;;;;;;;15.98;57.86;99141.13;5120130;28;19915;-78
2024/02/29 13:28:34;;;;;;;;;;;;;;;15.92;58.42;99150.56;5099081;28;20387;-78
2024/02/29 13:30:59;;;;;;;;;;;;;;;16.20;57.74;99152.97;5113735;28;20428;-79
2024/02/29 13:33:24;;;;;;;;;;;;;;;15.87;58.66;99149.97;5095949;28;19916;-79
2024/02/29 13:35:50;;;;;;;;;;;;;;;15.90;58.93;99151.06;5114797;28;19998;-78
2024/02/29 13:38:15;;;;;;;;;;;;;;;15.70;59.76;99159.81;5115439;28;19912;-80
2024/02/29 13:40:40;;;;;;;;;;;;;;;16.03;60.67;99156.50;5115438;28;19951;-79
2024/02/29 13:43:06;;;;;;;;;;;;;;;16.33;58.08;99141.66;5116239;28;19912;-79
2024/02/29 13:45:35;;;;;;;;;;;;;;;16.49;56.44;99129.41;5115718;28;20370;-80
2024/02/29 13:48:18;;;;;;;;;;;;;;;16.53;55.70;99121.63;5132920;28;19951;-79
2024/02/29 13:50:45;;;;;;;;;;;;;;;16.41;55.86;99131.72;5095792;28;19916;-79
2024/02/29 13:53:14;;;;;;;;;;;;;;;15.76;56.14;99127.34;5093081;28;19919;-79
2024/02/29 13:55:39;;;;;;;;;;;;;;;15.58;57.07;99120.94;5107105;28;19912;-81
2024/02/29 13:58:06;;;;;;;;;;;;;;;15.58;57.41;99121.72;5114446;27;20310;-80
2024/02/29 14:00:31;;;;;;;;;;;;;;;15.63;57.38;99109.97;5102112;27;19919;-81
2024/02/29 14:02:57;;;;;;;;;;;;;;;15.35;58.25;99111.88;5118725;27;19922;-81
2024/02/29 14:05:22;;;;;;;;;;;;;;;15.18;58.65;99098.66;5099814;28;19912;-79
2024/02/29 14:07:47;;;;;;;;;;;;;;;14.95;60.26;99089.56;5114264;27;20006;-80
2024/02/29 14:10:13;;;;;;;;;;;;;;;14.88;60.34;99098.22;5098205;28;19924;-80
2024/02/29 14:12:40;;;;;;;;;;;;;;;14.72;61.81;99103.22;5115341;27;19919;-80
2024/02/29 14:15:07;;;;;;;;;;;;;;;14.59;64.05;99122.75;5109070;28;20393;-80
2024/02/29 14:17:35;;;;;;;;;;;;;;;14.70;63.28;99127.94;5115034;28;19916;-80
2024/02/29 14:20:01;;;;;;;;;;;;;;;14.78;62.57;99134.78;5097404;28;19912;-80
2024/02/29 14:22:27;;;;;;;;;;;;;;;14.73;62.73;99144.47;5114339;28;19915;-80
2024/02/29 14:24:55;;;;;;;;;;;;;;;14.74;62.38;99123.00;5111313;28;19940;-79
2024/02/29 14:27:20;;;;;;;;;;;;;;;14.73;62.36;99122.22;5097422;28;19959;-80
2024/02/29 14:29:47;;;;;;;;;;;;;;;14.69;62.53;99137.50;5086518;28;19920;-80
2024/02/29 14:32:12;;;;;;;;;;;;;;;14.55;62.52;99134.00;5099826;28;19912;-80
2024/02/29 14:34:37;;;;;;;;;;;;;;;14.37;63.47;99136.66;5109357;28;20027;-79
2024/02/29 14:37:04;;;;;;;;;;;;;;;14.24;64.61;99127.56;5096390;28;19912;-79
2024/02/29 14:39:30;;;;;;;;;;;;;;;14.21;65.05;99111.78;5106295;28;19923;-79
2024/02/29 14:42:01;;;;;;;;;;;;;;;14.16;65.20;99109.59;5112212;28;19977;-79
2024/02/29 14:44:26;;;;;;;;;;;;;;;14.14;65.47;99098.94;5106680;28;19962;-80
2024/02/29 14:46:53;;;;;;;;;;;;;;;14.21;65.30;99104.25;5100132;28;19919;-79
2024/02/29 14:49:20;;;;;;;;;;;;;;;14.26;64.30;99100.09;5106076;28;19920;-79
2024/02/29 14:51:45;;;;;;;;;;;;;;;14.30;64.17;99089.63;5111143;28;19919;-79
2024/02/29 14:54:10;;;;;;;;;;;;;;;14.35;64.01;99094.59;5114277;28;19912;-80
2024/02/29 14:56:36;;;;;;;;;;;;;;;14.39;63.54;99095.28;5101526;28;19962;-78
2024/02/29 14:59:02;;;;;;;;;;;;;;;14.39;63.36;99106.41;5103794;28;19923;-79
2024/02/29 15:01:27;;;;;;;;;;;;;;;14.37;63.70;99108.84;5107698;28;19923;-78
2024/02/29 15:03:52;;;;;;;;;;;;;;;14.32;63.96;99106.63;5103758;28;19911;-80
2024/02/29 15:06:19;;;;;;;;;;;;;;;14.22;64.18;99105.00;5110767;28;19932;-78
2024/02/29 15:08:45;;;;;;;;;;;;;;;14.10;63.98;99103.06;5093333;28;19924;-78
2024/02/29 15:11:10;;;;;;;;;;;;;;;14.00;64.96;99102.19;5096661;28;19935;-80
2024/02/29 15:13:36;;;;;;;;;;;;;;;14.08;65.29;99099.94;5113625;28;19916;-79
2024/02/29 15:16:01;;;;;;;;;;;;;;;13.98;65.20;99103.88;5114044;28;19996;-78
2024/02/29 15:18:28;;;;;;;;;;;;;;;13.69;66.03;99110.38;5114124;28;19916;-79
2024/02/29 15:20:53;;;;;;;;;;;;;;;13.52;67.81;99097.88;5113957;28;19912;-80
2024/02/29 15:23:18;;;;;;;;;;;;;;;13.67;67.70;99095.41;5103003;28;19919;-79
2024/02/29 15:25:46;;;;;;;;;;;;;;;13.60;67.92;99092.88;5106675;28;20015;-80
2024/02/29 15:28:12;;;;;;;;;;;;;;;13.59;67.89;99097.63;5093281;28;19912;-79
2024/02/29 15:30:38;;;;;;;;;;;;;;;13.60;67.72;99090.88;5111856;28;19934;-78
2024/02/29 15:33:03;;;;;;;;;;;;;;;13.50;68.83;99083.69;5113545;28;19923;-80
2024/02/29 15:35:28;;;;;;;;;;;;;;;13.30;70.70;99083.13;5097060;28;19919;-79
2024/02/29 15:37:54;;;;;;;;;;;;;;;13.24;71.47;99093.25;5092933;28;20435;-78
2024/02/29 15:40:21;;;;;;;;;;;;;;;13.17;72.70;99087.91;5096043;28;19920;-78
2024/02/29 15:42:46;;;;;;;;;;;;;;;13.14;73.69;99083.25;5103585;28;20367;-78
2024/02/29 15:45:12;;;;;;;;;;;;;;;13.10;75.04;99083.31;5109702;28;19919;-78
2024/02/29 15:47:38;;;;;;;;;;;;;;;13.03;75.55;99089.88;5108065;28;19962;-77
2024/02/29 15:50:04;;;;;;;;;;;;;;;13.01;75.65;99106.19;5098141;28;19966;-78
2024/02/29 15:52:30;;;;;;;;;;;;;;;12.96;75.94;99117.81;5113648;28;20288;-78
2024/02/29 15:54:55;;;;;;;;;;;;;;;12.85;76.88;99109.06;5113653;28;19915;-79
2024/02/29 15:57:21;;;;;;;;;;;;;;;12.84;77.11;99113.03;5104976;28;20372;-78
2024/02/29 15:59:49;;;;;;;;;;;;;;;12.74;77.79;99103.06;5095990;28;20391;-79
2024/02/29 16:02:16;;;;;;;;;;;;;;;12.70;78.13;99110.69;5102531;28;19920;-79
2024/02/29 16:04:41;;;;;;;;;;;;;;;12.59;78.72;99111.03;5106535;28;19912;-77
2024/02/29 16:07:10;;;;;;;;;;;;;;;12.53;79.38;99100.91;5100290;28;19919;-79
2024/02/29 16:09:41;;;;;;;;;;;;;;;12.59;79.76;99104.69;5111856;27;19950;-78
2024/02/29 16:12:09;;;;;;;;;;;;;;;12.46;80.33;99104.66;5097676;27;19915;-79
2024/02/29 16:14:34;;;;;;;;;;;;;;;12.32;81.44;99093.19;5113293;27;19912;-78
2024/02/29 16:17:02;;;;;;;;;;;;;;;12.35;82.10;99093.09;5127756;27;19916;-77
2024/02/29 16:19:28;;;;;;;;;;;;;;;12.24;82.47;99096.16;5103704;27;19916;-78
2024/02/29 16:21:54;;;;;;;;;;;;;;;12.13;83.50;99084.59;5117394;27;19911;-78
2024/02/29 16:24:20;;;;;;;;;;;;;;;12.13;83.98;99090.13;5117396;27;20018;-77
2024/02/29 16:26:45;;;;;;;;;;;;;;;12.13;83.90;99098.44;5118128;27;20008;-77